Time;durP1;ratioP1;P1;durP2;ratioP2;P2;SDS_P1;SDS_P2;PMS_P1;PMS_P2;Temp;Humidity;BMP_temperature;BMP_pressure;BME280_temperature;BME280_humidity;BME280_pressure;Samples;Min_cycle;Max_cycle;Signal;HPM_P1;HPM_P2
2022/09/12 00:01:44;;;;;;;9.05;7.75;;;;;11.90;94266.00;;;;7392122;19;20139;-76
2022/09/12 00:04:18;;;;;;;9.70;8.70;;;;;11.80;94261.00;;;;7395715;19;20128;-77
2022/09/12 00:06:52;;;;;;;10.13;8.68;;;;;11.70;94266.00;;;;7393360;19;20162;-77
2022/09/12 00:09:26;;;;;;;9.13;7.95;;;;;11.80;94256.00;;;;7392876;19;20467;-77
2022/09/12 00:11:57;;;;;;;11.57;9.88;;;;;11.80;94262.00;;;;7394754;19;20140;-76
2022/09/12 00:14:25;;;;;;;11.60;10.27;;;;;12.00;94260.00;;;;7397254;19;20137;-77
2022/09/12 00:17:00;;;;;;;10.25;7.93;;;;;12.10;94257.00;;;;7394135;19;20125;-78
2022/09/12 00:19:28;;;;;;;10.10;7.15;;;;;12.10;94246.00;;;;7395826;19;20113;-77
2022/09/12 00:21:56;;;;;;;9.93;7.95;;;;;11.90;94252.00;;;;7393469;19;20655;-75
2022/09/12 00:24:32;;;;;;;14.43;8.23;;;;;12.00;94251.00;;;;7395377;19;20144;-77
2022/09/12 00:26:59;;;;;;;9.48;8.48;;;;;12.00;94246.00;;;;7397447;19;20135;-77
2022/09/12 00:29:27;;;;;;;9.85;8.85;;;;;12.00;94252.00;;;;7393046;19;20160;-78
2022/09/12 00:32:01;;;;;;;9.63;6.65;;;;;11.90;94256.00;;;;7389568;19;20133;-78
2022/09/12 00:34:31;;;;;;;8.38;7.35;;;;;11.90;94248.00;;;;7390531;19;20185;-78
2022/09/12 00:36:58;;;;;;;8.30;6.75;;;;;11.80;94252.00;;;;7393830;19;21031;-77
2022/09/12 00:39:36;;;;;;;9.60;8.15;;;;;11.90;94247.00;;;;7393514;19;20133;-76
2022/09/12 00:42:04;;;;;;;11.35;7.20;;;;;11.90;94243.00;;;;7392302;19;20153;-78
2022/09/12 00:44:52;;;;;;;9.57;7.00;;;;;11.80;94236.00;;;;7392877;19;20133;-78
2022/09/12 00:47:31;;;;;;;8.35;7.05;;;;;11.90;94238.00;;;;7391964;19;20214;-79
2022/09/12 00:50:07;;;;;;;9.77;7.97;;;;;12.00;94237.00;;;;7393088;19;20472;-78
2022/09/12 00:52:49;;;;;;;11.95;8.85;;;;;11.90;94234.00;;;;7391199;19;20662;-76
2022/09/12 00:55:35;;;;;;;12.02;9.52;;;;;12.00;94238.00;;;;7394314;19;20120;-78
2022/09/12 00:58:26;;;;;;;10.07;8.95;;;;;12.10;94221.00;;;;7393710;19;20133;-77
2022/09/12 01:00:54;;;;;;;9.38;8.45;;;;;12.10;94219.00;;;;7393019;19;20121;-79
2022/09/12 01:03:28;;;;;;;8.32;7.35;;;;;12.10;94223.00;;;;7390750;19;20125;-78
2022/09/12 01:06:36;;;;;;;9.63;7.07;;;;;12.00;94217.00;;;;7390455;19;20169;-77
2022/09/12 01:09:18;;;;;;;9.25;6.78;;;;;12.00;94206.00;;;;7393321;19;20158;-78
2022/09/12 01:11:47;;;;;;;7.53;6.72;;;;;12.10;94204.00;;;;7387921;19;20183;-77
2022/09/12 01:14:22;;;;;;;8.20;7.40;;;;;11.90;94204.00;;;;7390804;19;20212;-78
2022/09/12 01:16:50;;;;;;;12.95;7.65;;;;;11.90;94209.00;;;;7390374;19;20148;-78
2022/09/12 01:19:42;;;;;;;8.80;7.63;;;;;11.90;94208.00;;;;7391487;19;20254;-78
2022/09/12 01:23:01;;;;;;;8.30;6.63;;;;;12.00;94194.00;;;;7393734;19;20136;-77
2022/09/12 01:26:14;;;;;;;8.90;8.00;;;;;12.10;94205.00;;;;7393002;19;20140;-79
2022/09/12 01:29:13;;;;;;;8.82;7.93;;;;;12.40;94202.00;;;;7394502;19;20464;-77
2022/09/12 01:31:49;;;;;;;9.40;7.82;;;;;12.50;94188.00;;;;7390345;19;20125;-77
2022/09/12 01:34:45;;;;;;;8.18;7.15;;;;;12.60;94180.00;;;;7391787;19;20168;-78
2022/09/12 01:37:33;;;;;;;8.20;6.05;;;;;12.50;94193.00;;;;7394792;19;20128;-78
2022/09/12 01:40:22;;;;;;;7.45;6.63;;;;;12.30;94197.00;;;;7392843;19;20148;-78
2022/09/12 01:43:00;;;;;;;8.25;5.95;;;;;12.30;94187.00;;;;7391048;19;20503;-77
2022/09/12 01:45:42;;;;;;;6.53;5.93;;;;;12.10;94193.00;;;;7392402;19;20593;-78
2022/09/12 01:48:18;;;;;;;6.93;6.10;;;;;12.00;94178.00;;;;7399413;19;20128;-76
2022/09/12 01:51:00;;;;;;;6.93;6.03;;;;;12.00;94183.00;;;;7398751;19;20117;-78
2022/09/12 01:53:33;;;;;;;6.63;5.93;;;;;11.90;94185.00;;;;7397472;19;20140;-78
2022/09/12 01:56:24;;;;;;;9.25;7.22;;;;;12.00;94183.00;;;;7397860;19;20136;-77
2022/09/12 01:59:02;;;;;;;8.23;5.88;;;;;12.10;94189.00;;;;7397878;19;20140;-78
2022/09/12 02:01:44;;;;;;;11.23;6.50;;;;;12.10;94182.00;;;;7398245;19;20135;-78
2022/09/12 02:04:17;;;;;;;8.57;7.15;;;;;12.30;94179.00;;;;7398923;19;20184;-76
2022/09/12 02:07:20;;;;;;;7.90;7.07;;;;;12.60;94171.00;;;;7398942;19;20196;-77
2022/09/12 02:10:12;;;;;;;7.55;6.72;;;;;12.70;94167.00;;;;7397712;19;20113;-78
2022/09/12 02:13:15;;;;;;;7.88;7.07;;;;;12.50;94172.00;;;;7396347;19;20150;-78
2022/09/12 02:16:00;;;;;;;7.25;6.55;;;;;12.40;94167.00;;;;7397490;19;20499;-77
2022/09/12 02:18:37;;;;;;;7.63;5.60;;;;;12.30;94166.00;;;;7397720;19;20164;-78
2022/09/12 02:21:06;;;;;;;7.50;6.80;;;;;12.30;94161.00;;;;7397537;19;20145;-78
2022/09/12 02:23:37;;;;;;;7.68;6.40;;;;;12.40;94160.00;;;;7396508;19;20211;-78
2022/09/12 02:26:22;;;;;;;8.40;7.28;;;;;12.40;94151.00;;;;7398397;19;20617;-78
2022/09/12 02:28:56;;;;;;;6.82;6.13;;;;;12.30;94159.00;;;;7398003;19;20148;-78
2022/09/12 02:31:45;;;;;;;5.82;5.32;;;;;12.20;94144.00;;;;7395348;19;20646;-77
2022/09/12 02:34:20;;;;;;;7.40;5.25;;;;;11.90;94149.00;;;;7393470;19;20163;-77
2022/09/12 02:37:19;;;;;;;8.73;5.65;;;;;11.60;94151.00;;;;7395615;19;20137;-76
2022/09/12 02:39:47;;;;;;;6.15;5.55;;;;;11.50;94151.00;;;;7395106;19;20168;-77
2022/09/12 02:42:22;;;;;;;8.88;6.57;;;;;11.40;94143.00;;;;7392669;19;20141;-77
2022/09/12 02:44:51;;;;;;;10.02;6.20;;;;;11.30;94145.00;;;;7395571;19;20571;-77
2022/09/12 02:47:46;;;;;;;7.15;5.60;;;;;11.30;94143.00;;;;7398840;19;20140;-78
2022/09/12 02:50:20;;;;;;;8.70;7.80;;;;;11.30;94151.00;;;;7395303;19;20137;-77
2022/09/12 02:52:48;;;;;;;10.05;9.05;;;;;11.60;94161.00;;;;7397603;19;20165;-78
2022/09/12 02:55:16;;;;;;;14.20;9.55;;;;;12.00;94143.00;;;;7398757;19;20564;-76
2022/09/12 02:57:50;;;;;;;10.43;9.32;;;;;12.30;94155.00;;;;7397982;19;20193;-77
2022/09/12 03:00:17;;;;;;;9.85;8.77;;;;;12.50;94153.00;;;;7396776;19;20165;-78
2022/09/12 03:03:22;;;;;;;9.98;8.82;;;;;12.60;94150.00;;;;7398826;19;20139;-78
2022/09/12 03:06:43;;;;;;;10.65;8.80;;;;;12.70;94145.00;;;;7396565;19;20129;-78
2022/09/12 03:09:29;;;;;;;10.02;8.43;;;;;12.70;94147.00;;;;7395845;19;20172;-78
2022/09/12 03:12:19;;;;;;;11.88;8.73;;;;;12.80;94144.00;;;;7393924;19;20220;-77
2022/09/12 03:15:06;;;;;;;9.20;8.15;;;;;12.70;94142.00;;;;7393064;19;20152;-78
2022/09/12 03:18:21;;;;;;;7.90;6.82;;;;;12.70;94136.00;;;;7395933;19;20120;-78
2022/09/12 03:20:57;;;;;;;7.75;7.00;;;;;12.60;94144.00;;;;7393089;19;20156;-77
2022/09/12 03:23:45;;;;;;;7.82;7.03;;;;;12.60;94137.00;;;;7393232;19;20141;-76
2022/09/12 03:26:45;;;;;;;10.07;7.40;;;;;12.60;94143.00;;;;7393624;19;20145;-78
2022/09/12 03:29:22;;;;;;;8.10;7.00;;;;;12.50;94145.00;;;;7393595;19;20595;-77
2022/09/12 03:31:53;;;;;;;7.50;6.75;;;;;12.60;94151.00;;;;7393979;19;20255;-78
2022/09/12 03:34:27;;;;;;;8.75;7.22;;;;;12.50;94143.00;;;;7394675;19;20180;-77
2022/09/12 03:36:55;;;;;;;9.02;7.00;;;;;12.50;94134.00;;;;7393380;19;20212;-77
2022/09/12 03:39:23;;;;;;;9.85;7.68;;;;;12.50;94136.00;;;;7395635;19;20117;-77
2022/09/12 03:41:59;;;;;;;8.00;7.20;;;;;12.50;94144.00;;;;7394591;19;20670;-77
2022/09/12 03:44:27;;;;;;;9.80;7.60;;;;;12.50;94138.00;;;;7393298;19;20132;-78
2022/09/12 03:46:54;;;;;;;8.52;7.65;;;;;12.50;94137.00;;;;7393426;19;20165;-78
2022/09/12 03:49:27;;;;;;;9.82;7.75;;;;;12.50;94142.00;;;;7394568;19;20129;-78
2022/09/12 03:51:55;;;;;;;9.13;7.50;;;;;12.40;94144.00;;;;7392298;19;20735;-77
2022/09/12 03:54:23;;;;;;;9.45;7.45;;;;;12.50;94143.00;;;;7391100;19;20136;-75
2022/09/12 03:56:56;;;;;;;7.93;7.20;;;;;12.50;94140.00;;;;7394214;19;20508;-79
2022/09/12 03:59:24;;;;;;;7.35;6.65;;;;;12.60;94138.00;;;;7394389;19;20491;-78
2022/09/12 04:01:53;;;;;;;8.27;6.97;;;;;12.70;94140.00;;;;7395906;19;20140;-78
2022/09/12 04:04:28;;;;;;;8.55;6.63;;;;;12.60;94138.00;;;;7395430;19;20140;-78
2022/09/12 04:07:09;;;;;;;8.63;5.72;;;;;12.60;94135.00;;;;7392077;19;20179;-77
2022/09/12 04:09:43;;;;;;;11.95;6.82;;;;;12.60;94134.00;;;;7395597;19;20140;-77
2022/09/12 04:12:11;;;;;;;7.57;5.78;;;;;12.40;94138.00;;;;7394961;19;20144;-78
2022/09/12 04:14:39;;;;;;;7.15;6.13;;;;;12.40;94133.00;;;;7389388;19;20141;-78
2022/09/12 04:17:13;;;;;;;6.82;5.20;;;;;12.00;94136.00;;;;7393664;19;20467;-76
2022/09/12 04:19:41;;;;;;;6.18;5.10;;;;;11.90;94133.00;;;;7393204;19;20169;-78
2022/09/12 04:22:08;;;;;;;8.68;5.30;;;;;11.90;94133.00;;;;7392166;19;20132;-78
2022/09/12 04:24:42;;;;;;;5.97;5.38;;;;;11.70;94144.00;;;;7391186;19;20112;-76
2022/09/12 04:27:09;;;;;;;6.53;5.93;;;;;11.60;94139.00;;;;7393457;19;20132;-78
2022/09/12 04:29:46;;;;;;;9.52;6.03;;;;;11.40;94139.00;;;;7390372;19;20145;-78
2022/09/12 04:32:21;;;;;;;8.15;5.72;;;;;11.20;94145.00;;;;7393885;19;20121;-77
2022/09/12 04:34:49;;;;;;;6.43;5.82;;;;;11.30;94137.00;;;;7390429;19;20638;-77
2022/09/12 04:37:23;;;;;;;10.13;6.03;;;;;11.20;94136.00;;;;7390410;19;20132;-79
2022/09/12 04:39:58;;;;;;;9.18;6.13;;;;;11.20;94141.00;;;;7390869;19;20148;-77
2022/09/12 04:42:25;;;;;;;12.63;7.70;;;;;11.20;94132.00;;;;7392033;19;20129;-77
2022/09/12 04:44:55;;;;;;;8.00;6.18;;;;;11.00;94122.00;;;;7390107;19;20140;-77
2022/09/12 04:47:28;;;;;;;7.70;6.38;;;;;10.90;94125.00;;;;7392721;19;20117;-75
2022/09/12 04:49:56;;;;;;;7.68;6.88;;;;;10.90;94126.00;;;;7390633;19;20148;-76
2022/09/12 04:52:23;;;;;;;8.10;7.28;;;;;11.00;94115.00;;;;7390161;19;20182;-78
2022/09/12 04:54:57;;;;;;;7.82;6.38;;;;;11.00;94121.00;;;;7391116;19;20574;-76
2022/09/12 04:57:25;;;;;;;9.77;6.22;;;;;11.00;94118.00;;;;7389887;19;20133;-75
2022/09/12 04:59:52;;;;;;;7.00;6.30;;;;;11.00;94119.00;;;;7392338;19;20133;-76
2022/09/12 05:02:33;;;;;;;7.28;6.57;;;;;11.00;94117.00;;;;7392904;19;20148;-76
2022/09/12 05:05:01;;;;;;;10.00;6.57;;;;;11.20;94122.00;;;;7390023;19;20476;-76
2022/09/12 05:07:42;;;;;;;8.32;6.35;;;;;11.20;94123.00;;;;7388796;19;20513;-75
2022/09/12 05:10:11;;;;;;;8.65;6.57;;;;;11.30;94122.00;;;;7392191;19;20125;-77
2022/09/12 05:12:46;;;;;;;8.52;6.30;;;;;11.50;94120.00;;;;7382491;19;20575;-76
2022/09/12 05:15:13;;;;;;;8.68;6.50;;;;;11.40;94114.00;;;;7389995;19;20133;-77
2022/09/12 05:17:40;;;;;;;12.48;6.90;;;;;11.40;94120.00;;;;7393370;19;20129;-77
2022/09/12 05:20:16;;;;;;;9.18;7.07;;;;;11.40;94124.00;;;;7393358;19;20143;-76
2022/09/12 05:22:43;;;;;;;7.03;6.32;;;;;11.50;94126.00;;;;7399536;19;20511;-77
2022/09/12 05:25:11;;;;;;;7.18;6.47;;;;;11.60;94127.00;;;;7399306;19;20128;-78
2022/09/12 05:27:45;;;;;;;9.95;6.82;;;;;11.70;94126.00;;;;7401555;19;20211;-78
2022/09/12 05:30:16;;;;;;;9.73;6.97;;;;;11.70;94132.00;;;;7403643;19;20199;-77
2022/09/12 05:32:44;;;;;;;8.65;7.07;;;;;11.80;94134.00;;;;7398950;19;20160;-77
2022/09/12 05:35:18;;;;;;;7.25;6.32;;;;;12.10;94132.00;;;;7399786;19;20175;-78
2022/09/12 05:37:46;;;;;;;7.93;7.05;;;;;12.30;94137.00;;;;7403039;19;20136;-78
2022/09/12 05:40:16;;;;;;;7.78;6.18;;;;;12.40;94122.00;;;;7403382;19;20148;-76
2022/09/12 05:42:50;;;;;;;7.32;6.50;;;;;12.50;94134.00;;;;7398985;19;20192;-76
2022/09/12 05:45:20;;;;;;;8.07;6.80;;;;;12.70;94133.00;;;;7407621;19;20204;-77
2022/09/12 05:47:47;;;;;;;8.40;6.45;;;;;13.00;94133.00;;;;7410366;19;20167;-78
2022/09/12 05:50:24;;;;;;;11.77;7.05;;;;;13.20;94134.00;;;;7405624;19;20182;-78
2022/09/12 05:52:55;;;;;;;7.30;6.50;;;;;13.50;94125.00;;;;7399208;19;20595;-78
2022/09/12 05:55:23;;;;;;;6.72;6.05;;;;;13.60;94128.00;;;;7401964;19;20491;-78
2022/09/12 05:57:57;;;;;;;7.97;5.93;;;;;13.80;94127.00;;;;7404138;19;20121;-76
2022/09/12 06:00:25;;;;;;;6.38;5.25;;;;;14.00;94121.00;;;;7400710;19;20121;-77
2022/09/12 06:03:00;;;;;;;7.70;5.00;;;;;14.20;94126.00;;;;7401758;19;20149;-77
2022/09/12 06:05:34;;;;;;;5.30;4.80;;;;;14.40;94126.00;;;;7402586;19;20148;-77
2022/09/12 06:08:08;;;;;;;5.88;5.28;;;;;14.50;94121.00;;;;7409583;19;20195;-77
2022/09/12 06:10:43;;;;;;;4.60;4.20;;;;;14.50;94125.00;;;;7412039;19;20144;-78
2022/09/12 06:13:10;;;;;;;4.97;4.57;;;;;14.60;94126.00;;;;7406669;19;20175;-78
2022/09/12 06:15:38;;;;;;;7.60;4.47;;;;;14.60;94130.00;;;;7414256;19;20148;-77
2022/09/12 06:18:14;;;;;;;5.70;4.72;;;;;14.70;94125.00;;;;7417495;19;20153;-76
2022/09/12 06:20:42;;;;;;;5.95;4.50;;;;;14.90;94121.00;;;;7409227;19;20174;-77
2022/09/12 06:23:09;;;;;;;5.78;4.47;;;;;14.90;94133.00;;;;7409188;19;20152;-78
2022/09/12 06:25:48;;;;;;;6.55;4.15;;;;;15.00;94124.00;;;;7407756;19;20128;-78
2022/09/12 06:28:16;;;;;;;5.13;4.63;;;;;15.10;94118.00;;;;7410781;19;20145;-75
2022/09/12 06:30:50;;;;;;;4.55;4.00;;;;;15.20;94127.00;;;;7410535;19;20192;-77
2022/09/12 06:33:18;;;;;;;4.40;4.00;;;;;15.30;94132.00;;;;7407085;19;21500;-78
2022/09/12 06:35:46;;;;;;;5.47;4.15;;;;;15.30;94135.00;;;;7403672;19;20147;-78
2022/09/12 06:38:23;;;;;;;4.20;3.90;;;;;15.30;94122.00;;;;7403657;19;20139;-77
2022/09/12 06:40:50;;;;;;;4.60;4.20;;;;;15.40;94124.00;;;;7400595;19;20154;-80
2022/09/12 06:43:18;;;;;;;4.70;3.50;;;;;15.50;94126.00;;;;7401511;19;20138;-80
2022/09/12 06:45:52;;;;;;;5.45;3.88;;;;;15.60;94123.00;;;;7400907;19;20140;-78
2022/09/12 06:48:25;;;;;;;4.65;3.83;;;;;15.70;94125.00;;;;7402283;19;20125;-77
2022/09/12 06:50:58;;;;;;;5.85;3.78;;;;;15.80;94124.00;;;;7398743;19;20575;-79
2022/09/12 06:53:33;;;;;;;4.55;3.92;;;;;15.90;94123.00;;;;7395244;19;20196;-78
2022/09/12 06:56:05;;;;;;;4.45;4.05;;;;;16.00;94126.00;;;;7401014;19;20148;-78
2022/09/12 06:58:41;;;;;;;4.47;4.07;;;;;16.10;94123.00;;;;7403415;19;20133;-79
2022/09/12 07:01:12;;;;;;;4.80;3.83;;;;;16.20;94124.00;;;;7402268;19;20154;-79
2022/09/12 07:03:43;;;;;;;4.43;4.03;;;;;16.40;94116.00;;;;7401255;19;20154;-81
2022/09/12 07:06:33;;;;;;;4.50;4.07;;;;;16.60;94124.00;;;;7403184;19;20121;-81
2022/09/12 07:09:15;;;;;;;5.93;3.97;;;;;16.90;94125.00;;;;7399306;19;20132;-80
2022/09/12 07:11:49;;;;;;;5.38;4.53;;;;;16.90;94123.00;;;;7396857;19;20647;-80
2022/09/12 07:14:17;;;;;;;4.28;3.85;;;;;17.00;94121.00;;;;7394884;19;20556;-80
2022/09/12 07:16:44;;;;;;;4.10;3.80;;;;;17.00;94129.00;;;;7395794;19;20129;-77
2022/09/12 07:19:18;;;;;;;4.60;3.65;;;;;16.90;94125.00;;;;7396390;19;20146;-79
2022/09/12 07:21:46;;;;;;;4.43;4.03;;;;;17.10;94127.00;;;;7396488;19;20152;-80
2022/09/12 07:24:13;;;;;;;4.13;3.72;;;;;17.30;94119.00;;;;7401302;19;20137;-81
2022/09/12 07:26:47;;;;;;;6.20;3.70;;;;;17.60;94124.00;;;;7394973;19;20132;-80
2022/09/12 07:29:16;;;;;;;3.72;3.20;;;;;17.70;94121.00;;;;7394527;19;20136;-83
2022/09/12 07:32:04;;;;;;;3.63;3.33;;;;;17.40;94117.00;;;;7397597;19;20495;-80
2022/09/12 07:34:38;;;;;;;4.75;3.20;;;;;17.30;94117.00;;;;7392227;19;20179;-79
2022/09/12 07:37:08;;;;;;;3.70;3.40;;;;;17.40;94124.00;;;;7394530;19;20645;-78
2022/09/12 07:39:38;;;;;;;3.78;3.33;;;;;17.60;94132.00;;;;7396648;19;20204;-79
2022/09/12 07:42:14;;;;;;;4.53;3.20;;;;;17.90;94126.00;;;;7395776;19;20813;-78
2022/09/12 07:44:41;;;;;;;4.88;3.47;;;;;18.00;94124.00;;;;7390020;19;20149;-78
2022/09/12 07:47:14;;;;;;;4.85;3.33;;;;;17.70;94118.00;;;;7393108;19;20178;-79
2022/09/12 07:49:48;;;;;;;3.10;2.80;;;;;17.60;94131.00;;;;7398209;19;20149;-78
2022/09/12 07:52:16;;;;;;;3.58;2.60;;;;;17.50;94124.00;;;;7397050;19;20508;-78
2022/09/12 07:54:43;;;;;;;3.05;2.75;;;;;17.50;94122.00;;;;7393745;19;20121;-79
2022/09/12 07:57:17;;;;;;;2.97;2.78;;;;;17.70;94120.00;;;;7395995;19;20156;-78
2022/09/12 07:59:47;;;;;;;3.00;2.72;;;;;17.80;94111.00;;;;7396129;19;20156;-78
2022/09/12 08:02:19;;;;;;;2.85;2.65;;;;;18.00;94112.00;;;;7396152;19;20138;-80
2022/09/12 08:04:53;;;;;;;2.97;2.70;;;;;17.90;94114.00;;;;7392635;19;20634;-80
2022/09/12 08:07:30;;;;;;;2.72;2.53;;;;;18.20;94120.00;;;;7392277;19;20583;-82
2022/09/12 08:10:05;;;;;;;3.72;2.70;;;;;18.40;94124.00;;;;7395522;19;20125;-78
2022/09/12 08:12:33;;;;;;;3.78;2.60;;;;;18.50;94117.00;;;;7391269;19;20148;-79
2022/09/12 08:15:01;;;;;;;3.63;2.65;;;;;18.40;94127.00;;;;7392295;19;20607;-79
2022/09/12 08:17:34;;;;;;;3.17;2.80;;;;;18.30;94130.00;;;;7391943;19;20148;-78
2022/09/12 08:20:03;;;;;;;2.95;2.70;;;;;18.50;94136.00;;;;7392832;19;20158;-77
2022/09/12 08:22:30;;;;;;;2.97;2.78;;;;;18.40;94141.00;;;;7390931;19;20121;-78
2022/09/12 08:25:05;;;;;;;2.63;2.38;;;;;18.80;94137.00;;;;7391787;19;20606;-79
2022/09/12 08:27:32;;;;;;;3.28;2.38;;;;;19.00;94131.00;;;;7392655;19;20200;-80
2022/09/12 08:30:00;;;;;;;3.40;3.08;;;;;19.20;94130.00;;;;7394389;19;20136;-80
2022/09/12 08:32:34;;;;;;;3.05;2.75;;;;;19.20;94131.00;;;;7392006;19;20147;-81
2022/09/12 08:35:02;;;;;;;2.70;2.50;;;;;19.00;94123.00;;;;7389822;19;20706;-81
2022/09/12 08:37:30;;;;;;;2.83;2.20;;;;;18.90;94124.00;;;;7393803;19;20136;-80
2022/09/12 08:40:07;;;;;;;2.75;2.55;;;;;19.20;94130.00;;;;7392913;19;20148;-78
2022/09/12 08:43:32;;;;;;;2.75;2.47;;;;;19.20;94124.00;;;;7390160;19;20157;-79
2022/09/12 08:46:13;;;;;;;2.40;2.20;;;;;19.10;94121.00;;;;7394323;19;20132;-81
2022/09/12 08:48:44;;;;;;;2.80;2.60;;;;;19.10;94119.00;;;;7388515;19;20128;-78
2022/09/12 08:51:20;;;;;;;4.05;2.85;;;;;19.30;94128.00;;;;7391677;19;20152;-78
2022/09/12 08:53:50;;;;;;;3.13;2.63;;;;;19.70;94126.00;;;;7392942;19;20133;-78
2022/09/12 08:56:18;;;;;;;3.45;2.55;;;;;20.10;94122.00;;;;7393508;19;20125;-78
2022/09/12 08:58:58;;;;;;;2.45;2.25;;;;;20.30;94128.00;;;;7391397;19;20125;-79
2022/09/12 09:01:37;;;;;;;4.03;2.38;;;;;20.30;94138.00;;;;7391692;19;20165;-78
2022/09/12 09:04:37;;;;;;;2.80;2.45;;;;;20.40;94130.00;;;;7394532;19;20129;-79
2022/09/12 09:07:51;;;;;;;2.67;2.47;;;;;20.00;94128.00;;;;7390409;19;20784;-79
2022/09/12 09:10:28;;;;;;;3.25;2.45;;;;;19.90;94131.00;;;;7388854;19;20132;-79
2022/09/12 09:13:05;;;;;;;2.53;2.33;;;;;19.80;94130.00;;;;7390801;19;20163;-78
2022/09/12 09:16:06;;;;;;;2.65;2.45;;;;;19.70;94128.00;;;;7393207;19;20520;-80
2022/09/12 09:18:35;;;;;;;2.20;2.00;;;;;19.80;94120.00;;;;7389596;19;20256;-80
2022/09/12 09:21:38;;;;;;;2.63;2.42;;;;;19.30;94129.00;;;;7391689;19;20177;-83
2022/09/12 09:24:11;;;;;;;2.50;2.30;;;;;19.50;94121.00;;;;7393189;19;20621;-82
2022/09/12 09:26:57;;;;;;;3.17;2.45;;;;;19.60;94125.00;;;;7391401;19;20914;-79
2022/09/12 09:29:35;;;;;;;4.28;2.25;;;;;19.90;94125.00;;;;7394005;19;20124;-81
2022/09/12 09:32:17;;;;;;;2.25;2.10;;;;;20.10;94124.00;;;;7393974;19;20136;-80
2022/09/12 09:34:45;;;;;;;2.53;2.33;;;;;20.40;94139.00;;;;7390717;19;20701;-80
2022/09/12 09:37:27;;;;;;;2.40;2.20;;;;;20.50;94140.00;;;;7391764;19;20139;-80
2022/09/12 09:40:23;;;;;;;3.40;2.40;;;;;20.50;94142.00;;;;7394920;19;20125;-81
2022/09/12 09:43:09;;;;;;;2.78;2.17;;;;;20.60;94141.00;;;;7392351;19;20128;-83
2022/09/12 09:45:38;;;;;;;2.25;1.85;;;;;20.70;94134.00;;;;7394843;19;20638;-78
2022/09/12 09:48:26;;;;;;;1.90;1.80;;;;;20.90;94123.00;;;;7394214;19;20159;-79
2022/09/12 09:50:56;;;;;;;2.30;1.85;;;;;21.20;94129.00;;;;7388866;19;20133;-80
2022/09/12 09:53:44;;;;;;;2.78;2.15;;;;;21.00;94129.00;;;;7390116;19;20148;-78
2022/09/12 09:56:19;;;;;;;2.28;1.98;;;;;21.10;94132.00;;;;7390867;19;20571;-80
2022/09/12 09:58:53;;;;;;;2.55;2.10;;;;;21.50;94131.00;;;;7389031;19;20499;-78
2022/09/12 10:01:26;;;;;;;1.85;1.73;;;;;21.20;94126.00;;;;7391518;19;20142;-80
2022/09/12 10:03:55;;;;;;;3.83;1.90;;;;;20.90;94127.00;;;;7392686;19;20141;-80
2022/09/12 10:06:44;;;;;;;3.33;2.10;;;;;21.00;94128.00;;;;7387281;19;20152;-79
2022/09/12 10:09:34;;;;;;;1.80;1.70;;;;;21.80;94124.00;;;;7395233;19;20151;-79
2022/09/12 10:12:27;;;;;;;1.83;1.70;;;;;21.60;94130.00;;;;7397990;19;20149;-79
2022/09/12 10:15:15;;;;;;;4.25;1.70;;;;;21.60;94128.00;;;;7395478;19;20159;-81
2022/09/12 10:17:50;;;;;;;1.85;1.75;;;;;21.50;94118.00;;;;7398580;19;20140;-80
2022/09/12 10:20:42;;;;;;;1.45;1.35;;;;;21.30;94117.00;;;;7396445;19;20179;-82
2022/09/12 10:23:36;;;;;;;1.73;1.63;;;;;21.80;94115.00;;;;7397467;19;20224;-80
2022/09/12 10:26:17;;;;;;;2.55;1.55;;;;;22.00;94121.00;;;;7398176;19;20159;-80
2022/09/12 10:28:56;;;;;;;1.60;1.50;;;;;22.30;94119.00;;;;7397311;19;20598;-81
2022/09/12 10:31:44;;;;;;;3.85;1.80;;;;;22.60;94109.00;;;;7397430;19;20148;-83
2022/09/12 10:34:26;;;;;;;1.80;1.70;;;;;23.00;94106.00;;;;7393524;19;20155;-79
2022/09/12 10:37:00;;;;;;;1.60;1.50;;;;;23.40;94100.00;;;;7392840;19;20495;-79
2022/09/12 10:39:37;;;;;;;1.80;1.70;;;;;23.40;94116.00;;;;7390886;19;20140;-77
2022/09/12 10:42:05;;;;;;;1.60;1.50;;;;;23.30;94112.00;;;;7391669;19;20719;-80
2022/09/12 10:44:34;;;;;;;1.75;1.65;;;;;23.50;94114.00;;;;7390121;19;20133;-78
2022/09/12 10:47:29;;;;;;;1.95;1.42;;;;;23.30;94118.00;;;;7396193;19;20132;-78
2022/09/12 10:50:25;;;;;;;1.67;1.58;;;;;23.20;94116.00;;;;7396203;19;20131;-78
2022/09/12 10:53:20;;;;;;;3.97;2.35;;;;;23.30;94101.00;;;;7392863;19;20136;-78
2022/09/12 10:56:14;;;;;;;2.15;1.98;;;;;23.60;94108.00;;;;7393020;19;20641;-77
2022/09/12 10:59:05;;;;;;;1.40;1.30;;;;;23.40;94113.00;;;;7393542;19;20175;-78
2022/09/12 11:01:39;;;;;;;1.40;1.30;;;;;22.70;94109.00;;;;7398255;19;20449;-80
2022/09/12 11:04:35;;;;;;;2.25;1.83;;;;;22.30;94089.00;;;;7397969;19;20212;-80
2022/09/12 11:07:32;;;;;;;2.67;1.65;;;;;22.40;94099.00;;;;7397429;19;20599;-80
2022/09/12 11:10:41;;;;;;;1.98;1.60;;;;;22.60;94099.00;;;;7398668;19;20132;-79
2022/09/12 11:13:42;;;;;;;1.60;1.50;;;;;22.80;94097.00;;;;7394604;19;20598;-78
2022/09/12 11:16:21;;;;;;;3.67;2.95;;;;;23.30;94091.00;;;;7396542;19;20502;-81
2022/09/12 11:19:37;;;;;;;3.90;2.13;;;;;23.70;94090.00;;;;7394932;19;20140;-79
2022/09/12 11:22:38;;;;;;;2.92;1.48;;;;;24.30;94090.00;;;;7394014;19;20145;-80
2022/09/12 11:25:39;;;;;;;2.50;1.20;;;;;24.40;94081.00;;;;7393944;19;20146;-80
2022/09/12 11:28:13;;;;;;;1.30;1.20;;;;;23.90;94091.00;;;;7396897;19;20631;-79
2022/09/12 11:31:10;;;;;;;3.17;1.40;;;;;24.10;94086.00;;;;7392748;19;20639;-79
2022/09/12 11:33:47;;;;;;;1.67;1.30;;;;;24.40;94083.00;;;;7394308;19;20472;-80
2022/09/12 11:37:03;;;;;;;1.35;1.23;;;;;24.10;94082.00;;;;7394109;19;20137;-80
2022/09/12 11:39:47;;;;;;;1.00;1.00;;;;;23.90;94096.00;;;;7395634;19;20154;-79
2022/09/12 11:42:34;;;;;;;1.27;0.90;;;;;24.00;94089.00;;;;7395905;19;20151;-80
2022/09/12 11:45:13;;;;;;;1.45;1.08;;;;;23.70;94080.00;;;;7393723;19;20794;-79
2022/09/12 11:47:48;;;;;;;1.52;1.30;;;;;24.10;94075.00;;;;7394713;19;20488;-80
2022/09/12 11:50:28;;;;;;;1.20;0.90;;;;;24.40;94080.00;;;;7390789;19;20602;-78
2022/09/12 11:53:09;;;;;;;1.40;1.10;;;;;24.80;94079.00;;;;7392064;19;20369;-80
2022/09/12 11:55:57;;;;;;;1.58;1.20;;;;;24.80;94073.00;;;;7394298;19;20145;-77
2022/09/12 11:58:28;;;;;;;1.02;1.02;;;;;25.00;94069.00;;;;7394934;19;20476;-78
2022/09/12 12:01:25;;;;;;;1.38;1.27;;;;;25.40;94068.00;;;;7396217;19;20128;-79
2022/09/12 12:03:54;;;;;;;2.13;1.30;;;;;25.60;94067.00;;;;7396632;19;20152;-80
2022/09/12 12:06:35;;;;;;;1.30;1.10;;;;;26.00;94065.00;;;;7396551;19;20125;-79
2022/09/12 12:09:12;;;;;;;1.00;1.00;;;;;25.70;94063.00;;;;7390524;19;20164;-78
2022/09/12 12:11:51;;;;;;;1.40;1.30;;;;;25.60;94060.00;;;;7394752;19;20244;-78
2022/09/12 12:14:53;;;;;;;1.23;1.13;;;;;25.60;94064.00;;;;7394235;19;20129;-78
2022/09/12 12:17:28;;;;;;;1.35;1.20;;;;;25.60;94055.00;;;;7390948;19;20132;-80
2022/09/12 12:20:03;;;;;;;1.27;1.10;;;;;25.20;94049.00;;;;7395085;19;20507;-77
2022/09/12 12:22:49;;;;;;;1.40;1.10;;;;;24.90;94055.00;;;;7392852;19;20132;-80
2022/09/12 12:25:17;;;;;;;1.48;1.30;;;;;24.60;94047.00;;;;7393543;19;20460;-78
2022/09/12 12:28:00;;;;;;;1.45;1.05;;;;;24.70;94060.00;;;;7395017;19;20491;-78
2022/09/12 12:30:32;;;;;;;1.30;1.20;;;;;25.10;94056.00;;;;7388846;19;20164;-78
2022/09/12 12:33:09;;;;;;;1.98;1.30;;;;;25.10;94049.00;;;;7392431;19;20148;-80
2022/09/12 12:35:45;;;;;;;2.03;1.20;;;;;24.90;94043.00;;;;7392839;19;20587;-78
2022/09/12 12:38:32;;;;;;;1.33;1.20;;;;;25.00;94042.00;;;;7396850;19;20482;-78
2022/09/12 12:41:18;;;;;;;1.23;1.13;;;;;24.60;94046.00;;;;7392186;19;20212;-80
2022/09/12 12:43:55;;;;;;;1.42;1.33;;;;;24.30;94045.00;;;;7394227;19;20133;-79
2022/09/12 12:46:27;;;;;;;1.98;1.13;;;;;24.30;94049.00;;;;7390741;19;20502;-77
2022/09/12 12:49:16;;;;;;;1.98;1.20;;;;;24.00;94052.00;;;;7392870;19;20167;-79
2022/09/12 12:51:53;;;;;;;1.30;1.20;;;;;24.00;94045.00;;;;7394390;19;20132;-76
2022/09/12 12:54:33;;;;;;;1.88;1.38;;;;;24.00;94042.00;;;;7391248;19;20133;-80
2022/09/12 12:57:25;;;;;;;1.95;1.75;;;;;24.10;94050.00;;;;7393159;19;20152;-77
2022/09/12 13:00:08;;;;;;;2.58;1.20;;;;;23.90;94056.00;;;;7394520;19;20152;-78
2022/09/12 13:02:40;;;;;;;1.38;1.27;;;;;23.90;94053.00;;;;7391921;19;20618;-78
2022/09/12 13:05:23;;;;;;;1.30;1.20;;;;;24.00;94045.00;;;;7393538;19;20223;-79
2022/09/12 13:08:33;;;;;;;1.50;1.40;;;;;23.90;94044.00;;;;7384518;19;20172;-80
2022/09/12 13:11:28;;;;;;;1.35;1.25;;;;;23.80;94041.00;;;;7390614;19;20152;-78